Time;durP1;ratioP1;P1;durP2;ratioP2;P2;SDS_P1;SDS_P2;PMS_P1;PMS_P2;Temp;Humidity;BMP_temperature;BMP_pressure;BME280_temperature;BME280_humidity;BME280_pressure;Samples;Min_cycle;Max_cycle;Signal;HPM_P1;HPM_P2
2023/04/09 00:00:21;;;;;;;220.17;58.73;;;;;;;;;;10530787;28;20032;-76
2023/04/09 00:05:22;;;;;;;102.67;41.17;;;;;;;;;;10531366;28;20817;-77
2023/04/09 00:10:23;;;;;;;151.23;45.10;;;;;;;;;;10530278;28;20032;-77
2023/04/09 00:15:24;;;;;;;134.23;43.40;;;;;;;;;;10530179;28;20024;-76
2023/04/09 00:20:25;;;;;;;110.13;41.50;;;;;;;;;;10530199;28;20042;-76
2023/04/09 00:25:27;;;;;;;124.07;44.20;;;;;;;;;;10528767;28;20043;-77
2023/04/09 00:30:29;;;;;;;199.00;53.83;;;;;;;;;;10529455;28;20028;-77
2023/04/09 00:35:30;;;;;;;134.47;43.53;;;;;;;;;;10529861;28;20036;-76
2023/04/09 00:40:31;;;;;;;136.57;50.40;;;;;;;;;;10529415;28;20036;-76
2023/04/09 00:45:32;;;;;;;146.27;52.07;;;;;;;;;;10529026;28;20560;-77
2023/04/09 00:50:33;;;;;;;161.70;53.97;;;;;;;;;;10530214;28;20032;-76
2023/04/09 00:55:35;;;;;;;189.23;60.40;;;;;;;;;;10529875;28;20024;-76
2023/04/09 01:00:36;;;;;;;227.27;62.70;;;;;;;;;;10528045;28;20072;-76
2023/04/09 01:05:52;;;;;;;277.20;74.03;;;;;;;;;;10523173;28;20148;-76
2023/04/09 01:10:55;;;;;;;207.27;64.53;;;;;;;;;;10508968;28;20066;-78
2023/04/09 01:15:59;;;;;;;405.90;100.03;;;;;;;;;;10525867;28;20033;-78
2023/04/09 01:21:09;;;;;;;323.53;85.00;;;;;;;;;;10527352;28;20471;-77
2023/04/09 01:26:18;;;;;;;368.30;96.20;;;;;;;;;;10526886;28;20071;-75
2023/04/09 01:31:20;;;;;;;253.93;76.10;;;;;;;;;;10526518;28;20036;-77
2023/04/09 01:36:22;;;;;;;300.33;75.97;;;;;;;;;;10514091;28;20024;-77
2023/04/09 01:41:24;;;;;;;184.23;57.83;;;;;;;;;;10527026;28;20115;-78
2023/04/09 01:46:26;;;;;;;149.97;49.43;;;;;;;;;;10525958;28;20043;-77
2023/04/09 01:51:27;;;;;;;175.83;51.77;;;;;;;;;;10525647;28;20071;-76
2023/04/09 01:56:28;;;;;;;180.77;52.07;;;;;;;;;;10525444;28;20118;-77
2023/04/09 02:01:34;;;;;;;266.77;62.97;;;;;;;;;;10525938;28;20099;-78
2023/04/09 02:06:40;;;;;;;314.83;70.30;;;;;;;;;;10523399;28;20054;-78
2023/04/09 02:11:41;;;;;;;147.50;48.40;;;;;;;;;;10525503;28;20040;-78
2023/04/09 02:16:42;;;;;;;103.83;39.50;;;;;;;;;;10525883;28;20032;-78
2023/04/09 02:21:44;;;;;;;101.70;41.13;;;;;;;;;;10525958;28;20413;-77
2023/04/09 02:26:45;;;;;;;100.17;39.40;;;;;;;;;;10522009;28;20249;-77
2023/04/09 02:31:46;;;;;;;78.83;34.30;;;;;;;;;;10525190;28;20028;-76
2023/04/09 02:36:46;;;;;;;92.20;37.33;;;;;;;;;;10524710;28;20138;-77
2023/04/09 02:41:47;;;;;;;84.60;34.10;;;;;;;;;;10524997;28;20063;-77
2023/04/09 02:46:51;;;;;;;85.13;34.40;;;;;;;;;;10527837;28;20048;-77
2023/04/09 02:51:52;;;;;;;99.50;37.73;;;;;;;;;;10533398;28;20473;-77
2023/04/09 02:56:53;;;;;;;90.80;32.93;;;;;;;;;;10532133;28;20036;-77
2023/04/09 03:01:54;;;;;;;63.73;29.33;;;;;;;;;;10532875;28;20056;-77
2023/04/09 03:06:55;;;;;;;97.73;34.70;;;;;;;;;;10537014;28;20502;-77
2023/04/09 03:11:56;;;;;;;84.07;33.93;;;;;;;;;;10532868;28;20059;-77
2023/04/09 03:16:57;;;;;;;77.83;32.23;;;;;;;;;;10512887;28;20047;-77
2023/04/09 03:21:58;;;;;;;71.43;31.60;;;;;;;;;;10532075;28;20036;-77
2023/04/09 03:26:59;;;;;;;105.40;42.83;;;;;;;;;;10530232;28;20042;-76
2023/04/09 03:32:00;;;;;;;112.67;43.23;;;;;;;;;;10531368;28;20368;-77
2023/04/09 03:37:01;;;;;;;87.97;35.70;;;;;;;;;;10528779;28;20032;-78
2023/04/09 03:42:02;;;;;;;112.30;43.47;;;;;;;;;;10530365;28;20032;-75
2023/04/09 03:47:02;;;;;;;103.27;41.67;;;;;;;;;;10529753;28;20093;-77
2023/04/09 03:52:03;;;;;;;117.93;47.93;;;;;;;;;;10527897;28;20392;-77
2023/04/09 03:57:04;;;;;;;113.30;49.57;;;;;;;;;;10527866;28;20038;-77
2023/04/09 04:02:05;;;;;;;110.63;44.27;;;;;;;;;;10527373;28;20097;-77
2023/04/09 04:07:07;;;;;;;116.37;40.87;;;;;;;;;;10527182;28;20072;-77
2023/04/09 04:12:08;;;;;;;109.17;40.17;;;;;;;;;;10529488;28;20737;-77
2023/04/09 04:17:10;;;;;;;113.33;42.13;;;;;;;;;;10529984;28;20104;-77
2023/04/09 04:22:11;;;;;;;105.77;37.13;;;;;;;;;;10530410;28;20402;-78
2023/04/09 04:27:12;;;;;;;114.57;42.23;;;;;;;;;;10529360;28;20048;-77
2023/04/09 04:32:13;;;;;;;120.63;40.93;;;;;;;;;;10529602;28;20040;-77
2023/04/09 04:37:14;;;;;;;116.37;41.33;;;;;;;;;;10529859;28;20032;-77
2023/04/09 04:42:15;;;;;;;147.90;49.83;;;;;;;;;;10529364;28;20024;-77
2023/04/09 04:47:16;;;;;;;156.57;53.53;;;;;;;;;;10529354;28;20062;-78
2023/04/09 04:52:17;;;;;;;151.73;59.37;;;;;;;;;;10528674;28;20038;-77
2023/04/09 04:57:18;;;;;;;205.60;76.50;;;;;;;;;;10528690;28;20103;-77
2023/04/09 05:02:19;;;;;;;184.80;69.07;;;;;;;;;;10528284;28;20056;-78
2023/04/09 05:07:20;;;;;;;211.83;79.70;;;;;;;;;;10527851;28;20667;-76
2023/04/09 05:12:21;;;;;;;247.93;94.33;;;;;;;;;;10528165;28;20023;-76
2023/04/09 05:17:23;;;;;;;266.37;100.80;;;;;;;;;;10528251;28;20069;-77
2023/04/09 05:22:24;;;;;;;300.97;117.53;;;;;;;;;;10524834;28;20081;-76
2023/04/09 05:27:26;;;;;;;284.37;107.40;;;;;;;;;;10526590;28;20093;-76
2023/04/09 05:32:27;;;;;;;284.30;108.10;;;;;;;;;;10513809;28;20142;-76
2023/04/09 05:37:28;;;;;;;256.70;99.87;;;;;;;;;;10520413;28;20036;-76
2023/04/09 05:42:29;;;;;;;229.80;86.93;;;;;;;;;;10517894;28;20039;-77
2023/04/09 05:47:30;;;;;;;257.30;101.00;;;;;;;;;;10523063;28;20760;-78
2023/04/09 05:52:33;;;;;;;294.17;108.17;;;;;;;;;;10519345;28;20092;-78
2023/04/09 05:57:34;;;;;;;300.70;115.60;;;;;;;;;;10520583;28;20028;-77
2023/04/09 06:02:37;;;;;;;251.57;94.73;;;;;;;;;;10517348;28;20148;-78
2023/04/09 06:07:38;;;;;;;308.70;118.27;;;;;;;;;;10514671;28;20395;-77
2023/04/09 06:12:39;;;;;;;209.50;86.50;;;;;;;;;;10522611;28;20036;-77
2023/04/09 06:17:40;;;;;;;297.60;117.30;;;;;;;;;;10523798;28;20031;-76
2023/04/09 06:22:41;;;;;;;250.20;100.33;;;;;;;;;;10528223;28;20042;-77
2023/04/09 06:27:42;;;;;;;208.03;85.20;;;;;;;;;;10532044;28;20067;-77
2023/04/09 06:32:44;;;;;;;172.60;75.07;;;;;;;;;;10530424;28;20105;-76
2023/04/09 06:37:45;;;;;;;220.67;86.10;;;;;;;;;;10530987;28;20032;-76
2023/04/09 06:42:46;;;;;;;207.57;91.73;;;;;;;;;;10530392;28;20082;-76
2023/04/09 06:47:48;;;;;;;236.87;97.10;;;;;;;;;;10522040;28;20067;-76
2023/04/09 06:52:52;;;;;;;256.87;107.40;;;;;;;;;;10526580;28;20031;-78
2023/04/09 06:57:55;;;;;;;292.47;124.87;;;;;;;;;;10529524;28;20059;-79
2023/04/09 07:02:56;;;;;;;220.30;107.03;;;;;;;;;;10529354;28;20048;-78
2023/04/09 07:08:00;;;;;;;278.97;121.90;;;;;;;;;;10519429;28;20439;-77
2023/04/09 07:13:01;;;;;;;206.90;95.73;;;;;;;;;;10532117;28;20451;-77
2023/04/09 07:18:04;;;;;;;253.50;121.83;;;;;;;;;;10524833;28;20080;-78
2023/04/09 07:23:05;;;;;;;175.63;86.10;;;;;;;;;;10531995;28;20646;-77
2023/04/09 07:28:06;;;;;;;158.37;72.73;;;;;;;;;;10530975;28;20042;-81
2023/04/09 07:33:07;;;;;;;116.47;53.30;;;;;;;;;;10510936;28;20380;-80
2023/04/09 07:38:08;;;;;;;122.17;53.40;;;;;;;;;;10512535;28;20471;-80
2023/04/09 07:43:09;;;;;;;162.27;74.30;;;;;;;;;;10531795;28;20474;-81
2023/04/09 07:48:10;;;;;;;106.77;52.63;;;;;;;;;;10525850;28;20407;-83
2023/04/09 07:53:11;;;;;;;133.80;57.13;;;;;;;;;;10528051;28;20032;-83
2023/04/09 07:58:14;;;;;;;126.77;59.40;;;;;;;;;;10527982;28;20024;-80
2023/04/09 08:03:16;;;;;;;104.83;47.50;;;;;;;;;;10526749;28;20105;-79
2023/04/09 08:08:18;;;;;;;95.40;41.87;;;;;;;;;;10528724;28;20466;-79
2023/04/09 08:13:19;;;;;;;92.43;40.93;;;;;;;;;;10517763;28;20081;-79
2023/04/09 08:18:20;;;;;;;93.63;42.17;;;;;;;;;;10529688;28;20547;-79
2023/04/09 08:23:21;;;;;;;84.77;39.70;;;;;;;;;;10525640;28;20086;-78
2023/04/09 08:28:22;;;;;;;80.17;39.77;;;;;;;;;;10521405;28;20039;-79
2023/04/09 08:33:23;;;;;;;77.87;39.40;;;;;;;;;;10528861;28;20036;-80
2023/04/09 08:38:24;;;;;;;79.80;39.27;;;;;;;;;;10526940;28;20043;-79
2023/04/09 08:43:27;;;;;;;85.63;42.97;;;;;;;;;;10527473;28;20024;-79
2023/04/09 08:48:28;;;;;;;77.47;35.27;;;;;;;;;;10521467;28;20040;-80
2023/04/09 08:53:29;;;;;;;69.57;34.43;;;;;;;;;;10506071;28;20039;-81
2023/04/09 08:58:30;;;;;;;77.28;37.53;;;;;;;;;;10508162;28;20058;-83
2023/04/09 09:03:31;;;;;;;64.50;30.70;;;;;;;;;;10508978;28;20055;-83
2023/04/09 09:08:32;;;;;;;69.97;33.50;;;;;;;;;;10520433;28;20036;-80
2023/04/09 09:13:33;;;;;;;64.90;31.57;;;;;;;;;;10517982;28;20036;-81
2023/04/09 09:18:41;;;;;;;61.22;30.45;;;;;;;;;;10516973;28;20028;-82
2023/04/09 09:23:43;;;;;;;63.17;29.95;;;;;;;;;;10493788;28;20116;-81
2023/04/09 09:28:45;;;;;;;53.58;26.73;;;;;;;;;;10518953;28;20117;-81
2023/04/09 09:33:47;;;;;;;54.38;27.63;;;;;;;;;;10497122;28;20074;-80
2023/04/09 09:38:54;;;;;;;53.25;26.67;;;;;;;;;;10506504;28;20036;-81
2023/04/09 09:43:55;;;;;;;54.33;25.58;;;;;;;;;;10533841;28;20032;-81
2023/04/09 09:48:56;;;;;;;58.57;29.50;;;;;;;;;;10516019;28;20028;-82
2023/04/09 09:53:58;;;;;;;53.88;28.15;;;;;;;;;;10516471;28;20043;-81
2023/04/09 09:59:02;;;;;;;55.22;27.67;;;;;;;;;;10524542;28;20474;-80
2023/04/09 10:04:05;;;;;;;55.97;28.15;;;;;;;;;;10526876;28;20052;-81
2023/04/09 10:09:06;;;;;;;50.03;27.10;;;;;;;;;;10509468;28;20060;-81
2023/04/09 10:14:07;;;;;;;58.72;31.73;;;;;;;;;;10509580;28;20043;-82
2023/04/09 10:19:12;;;;;;;60.60;31.23;;;;;;;;;;10529195;28;20043;-81
2023/04/09 10:24:14;;;;;;;51.80;28.10;;;;;;;;;;10521634;28;20131;-81
2023/04/09 10:29:16;;;;;;;53.95;27.92;;;;;;;;;;10525784;28;20024;-79
2023/04/09 10:34:22;;;;;;;53.30;29.60;;;;;;;;;;10524954;28;20036;-81
2023/04/09 10:39:29;;;;;;;52.05;27.02;;;;;;;;;;10525105;28;20032;-80
2023/04/09 10:44:31;;;;;;;51.53;27.42;;;;;;;;;;10524317;28;20036;-83
2023/04/09 10:49:36;;;;;;;56.25;29.77;;;;;;;;;;10524312;28;20036;-80
2023/04/09 10:54:38;;;;;;;52.88;29.13;;;;;;;;;;10506447;28;20051;-81
2023/04/09 10:59:43;;;;;;;57.00;28.52;;;;;;;;;;10524283;28;20905;-83
2023/04/09 11:05:05;;;;;;;50.42;27.90;;;;;;;;;;10536993;28;20067;-82
2023/04/09 11:10:07;;;;;;;49.42;26.17;;;;;;;;;;10524610;28;20021;-83
2023/04/09 11:15:15;;;;;;;48.22;25.75;;;;;;;;;;10518023;28;20560;-80
2023/04/09 11:20:22;;;;;;;37.60;18.73;;;;;;;;;;10512272;28;20024;-80
2023/04/09 11:25:25;;;;;;;42.00;21.65;;;;;;;;;;10515762;28;20045;-81
2023/04/09 11:30:27;;;;;;;41.55;22.67;;;;;;;;;;10500318;28;20020;-80
2023/04/09 11:35:28;;;;;;;39.92;20.52;;;;;;;;;;10529787;28;20119;-80
2023/04/09 11:40:29;;;;;;;41.97;23.50;;;;;;;;;;10528657;28;20372;-78
2023/04/09 11:45:31;;;;;;;38.13;20.75;;;;;;;;;;10528738;28;20048;-78
2023/04/09 11:50:34;;;;;;;35.63;19.48;;;;;;;;;;10520388;28;20028;-79
2023/04/09 11:55:35;;;;;;;28.40;17.77;;;;;;;;;;10511618;28;20126;-80
2023/04/09 12:00:41;;;;;;;34.30;17.67;;;;;;;;;;10529965;28;20497;-79
2023/04/09 12:05:45;;;;;;;28.27;16.23;;;;;;;;;;10526243;28;20052;-80
2023/04/09 12:10:48;;;;;;;20.35;12.38;;;;;;;;;;10514048;28;20097;-80
2023/04/09 12:15:49;;;;;;;40.78;22.38;;;;;;;;;;10510591;28;20036;-77
2023/04/09 12:20:50;;;;;;;50.95;30.08;;;;;;;;;;10527156;28;20036;-81
2023/04/09 12:25:51;;;;;;;24.52;16.02;;;;;;;;;;10528742;28;20040;-79
2023/04/09 12:30:53;;;;;;;326.40;220.13;;;;;;;;;;10529125;28;20028;-79
2023/04/09 12:35:57;;;;;;;27.15;16.35;;;;;;;;;;10529654;28;20046;-78
2023/04/09 12:40:58;;;;;;;23.80;12.48;;;;;;;;;;10524647;28;20048;-80
2023/04/09 12:45:59;;;;;;;24.60;12.05;;;;;;;;;;10525699;28;20036;-78
2023/04/09 12:51:00;;;;;;;11.77;7.18;;;;;;;;;;10518886;28;20028;-80
2023/04/09 12:56:02;;;;;;;14.85;8.95;;;;;;;;;;10526235;28;20068;-78
2023/04/09 13:01:09;;;;;;;12.95;7.82;;;;;;;;;;10527808;28;20139;-78
2023/04/09 13:06:13;;;;;;;33.33;30.05;;;;;;;;;;10521188;28;20109;-78
2023/04/09 13:11:14;;;;;;;15.50;10.13;;;;;;;;;;10519881;28;20391;-79
2023/04/09 13:16:17;;;;;;;16.60;10.52;;;;;;;;;;10516849;28;20051;-78
2023/04/09 13:32:35;;;;;;;18.33;12.57;;;;;;;;;;10507011;28;20036;-80
2023/04/09 13:37:38;;;;;;;20.73;13.00;;;;;;;;;;10526081;28;20044;-81
2023/04/09 13:42:39;;;;;;;25.13;15.48;;;;;;;;;;10504879;28;20445;-79
2023/04/09 13:47:41;;;;;;;22.73;14.80;;;;;;;;;;10524361;28;20039;-81
2023/04/09 13:52:42;;;;;;;23.33;14.98;;;;;;;;;;10517241;28;20490;-78
2023/04/09 13:57:43;;;;;;;36.90;21.10;;;;;;;;;;10511922;28;20071;-79
2023/04/09 14:02:45;;;;;;;46.90;25.92;;;;;;;;;;10523306;28;20075;-79
2023/04/09 14:07:46;;;;;;;61.75;37.17;;;;;;;;;;10516590;28;20036;-80
2023/04/09 14:12:47;;;;;;;48.00;28.50;;;;;;;;;;10520954;28;20136;-80
2023/04/09 14:17:48;;;;;;;53.00;30.60;;;;;;;;;;10511321;28;20839;-80
2023/04/09 14:22:49;;;;;;;47.85;29.05;;;;;;;;;;10523681;28;20060;-80
2023/04/09 14:27:50;;;;;;;40.30;26.42;;;;;;;;;;10524074;28;20024;-80
2023/04/09 14:32:51;;;;;;;35.90;22.52;;;;;;;;;;10524316;28;20028;-80
2023/04/09 14:37:52;;;;;;;37.97;25.17;;;;;;;;;;10516214;28;20482;-79
2023/04/09 14:42:53;;;;;;;65.13;35.88;;;;;;;;;;10525682;28;20032;-80
2023/04/09 14:47:54;;;;;;;48.53;27.17;;;;;;;;;;10525200;28;20077;-80
2023/04/09 14:52:55;;;;;;;31.25;20.00;;;;;;;;;;10530822;28;20028;-80
2023/04/09 14:57:56;;;;;;;39.63;22.02;;;;;;;;;;10532221;28;20364;-79
2023/04/09 15:02:59;;;;;;;35.20;21.25;;;;;;;;;;10539790;28;20051;-80
2023/04/09 15:08:00;;;;;;;36.63;23.27;;;;;;;;;;10531082;28;20032;-80
2023/04/09 15:13:01;;;;;;;37.17;22.63;;;;;;;;;;10529608;28;20024;-81
2023/04/09 15:18:04;;;;;;;50.00;29.52;;;;;;;;;;10529581;28;20559;-80
2023/04/09 15:23:05;;;;;;;47.15;24.90;;;;;;;;;;10530351;28;20068;-81
2023/04/09 15:28:06;;;;;;;37.60;21.27;;;;;;;;;;10494725;28;20040;-81
2023/04/09 15:33:07;;;;;;;41.30;21.83;;;;;;;;;;10530764;28;20024;-81
2023/04/09 15:38:10;;;;;;;46.00;23.63;;;;;;;;;;10528354;28;20040;-81
2023/04/09 15:43:11;;;;;;;39.13;22.80;;;;;;;;;;10530539;28;20379;-81
2023/04/09 15:48:12;;;;;;;54.77;27.47;;;;;;;;;;10530553;28;20024;-81
2023/04/09 15:53:14;;;;;;;57.77;29.00;;;;;;;;;;10528432;28;20119;-81
2023/04/09 15:58:15;;;;;;;81.13;42.13;;;;;;;;;;10530167;28;20123;-81
2023/04/09 16:03:17;;;;;;;71.37;36.20;;;;;;;;;;10525345;28;20394;-82
2023/04/09 16:08:17;;;;;;;63.77;31.23;;;;;;;;;;10523768;28;20047;-82
2023/04/09 16:13:19;;;;;;;69.60;32.13;;;;;;;;;;10526905;28;20039;-80
2023/04/09 16:18:20;;;;;;;73.13;34.47;;;;;;;;;;10527443;28;20040;-82
2023/04/09 16:23:21;;;;;;;77.43;33.83;;;;;;;;;;10527336;28;20032;-82
2023/04/09 16:28:22;;;;;;;63.37;29.37;;;;;;;;;;10518838;28;20028;-80
2023/04/09 16:33:23;;;;;;;66.03;30.40;;;;;;;;;;10528300;28;20028;-81
2023/04/09 16:38:26;;;;;;;66.03;28.90;;;;;;;;;;10521485;28;20577;-82
2023/04/09 16:43:27;;;;;;;68.13;29.37;;;;;;;;;;10492790;28;20563;-82
2023/04/09 16:48:28;;;;;;;58.30;27.53;;;;;;;;;;10527190;28;20028;-81
2023/04/09 16:53:29;;;;;;;44.60;21.40;;;;;;;;;;10525723;28;20905;-83
2023/04/09 16:58:30;;;;;;;48.37;22.13;;;;;;;;;;10529006;28;20051;-82
2023/04/09 17:03:31;;;;;;;40.53;20.03;;;;;;;;;;10528739;28;20120;-82
2023/04/09 17:08:32;;;;;;;40.57;20.17;;;;;;;;;;10526868;28;20024;-83
2023/04/09 17:13:36;;;;;;;40.93;20.53;;;;;;;;;;10526720;28;20035;-82
2023/04/09 17:18:38;;;;;;;37.80;19.03;;;;;;;;;;10524312;28;20039;-82
2023/04/09 17:23:39;;;;;;;38.93;19.17;;;;;;;;;;10525928;28;20150;-82
2023/04/09 17:28:41;;;;;;;41.93;20.77;;;;;;;;;;10524317;28;20032;-82
2023/04/09 17:33:46;;;;;;;43.30;19.33;;;;;;;;;;10524192;28;20084;-82
2023/04/09 17:38:48;;;;;;;38.80;19.90;;;;;;;;;;10524477;28;20043;-82
2023/04/09 17:43:49;;;;;;;36.60;18.37;;;;;;;;;;10524983;28;20052;-82
2023/04/09 17:48:51;;;;;;;37.50;17.33;;;;;;;;;;10523454;28;20044;-82
2023/04/09 17:53:53;;;;;;;29.30;15.40;;;;;;;;;;10524330;28;20562;-82
2023/04/09 17:58:54;;;;;;;28.63;15.37;;;;;;;;;;10506205;28;20437;-83
2023/04/09 18:03:55;;;;;;;29.17;13.97;;;;;;;;;;10509744;28;20197;-81
2023/04/09 18:08:56;;;;;;;32.07;15.23;;;;;;;;;;10490392;28;20178;-82
2023/04/09 18:13:57;;;;;;;33.40;16.63;;;;;;;;;;10487540;28;20035;-82
2023/04/09 18:18:58;;;;;;;33.03;16.63;;;;;;;;;;10488818;28;20044;-82
2023/04/09 18:23:59;;;;;;;34.47;17.23;;;;;;;;;;10496032;28;20040;-83
2023/04/09 18:29:00;;;;;;;37.53;18.20;;;;;;;;;;10500557;28;20032;-82
2023/04/09 18:34:01;;;;;;;36.37;16.97;;;;;;;;;;10478126;28;20440;-81
2023/04/09 18:39:03;;;;;;;39.43;19.90;;;;;;;;;;10474481;28;20036;-81
2023/04/09 18:44:05;;;;;;;46.13;21.20;;;;;;;;;;10493772;28;20033;-82
2023/04/09 18:49:06;;;;;;;50.33;24.30;;;;;;;;;;10490545;28;20021;-81
2023/04/09 18:54:07;;;;;;;52.33;22.63;;;;;;;;;;10490406;28;20028;-82
2023/04/09 18:59:08;;;;;;;52.13;25.23;;;;;;;;;;10497833;28;20123;-81
2023/04/09 19:04:10;;;;;;;46.60;21.40;;;;;;;;;;10516842;28;20047;-81
2023/04/09 19:09:11;;;;;;;49.57;24.40;;;;;;;;;;10530904;28;20465;-81
2023/04/09 19:14:12;;;;;;;55.87;25.87;;;;;;;;;;10530851;28;20035;-82
2023/04/09 19:19:13;;;;;;;65.03;29.43;;;;;;;;;;10529573;28;20115;-83
2023/04/09 19:24:14;;;;;;;66.27;28.67;;;;;;;;;;10530768;28;20449;-83
2023/04/09 19:29:15;;;;;;;75.30;31.43;;;;;;;;;;10529205;28;20451;-82
2023/04/09 19:34:16;;;;;;;68.90;30.83;;;;;;;;;;10520677;28;20038;-82
2023/04/09 19:39:17;;;;;;;69.10;29.53;;;;;;;;;;10528230;28;20450;-83
2023/04/09 19:44:18;;;;;;;72.67;30.47;;;;;;;;;;10500794;28;20094;-83
2023/04/09 19:49:19;;;;;;;72.13;30.20;;;;;;;;;;10506210;28;20448;-83
2023/04/09 19:54:20;;;;;;;69.67;33.80;;;;;;;;;;10516925;28;20080;-83
2023/04/09 19:59:21;;;;;;;73.07;30.60;;;;;;;;;;10529020;28;20394;-84
2023/04/09 20:04:23;;;;;;;71.67;33.07;;;;;;;;;;10530260;28;20066;-83
2023/04/09 20:09:26;;;;;;;74.27;34.20;;;;;;;;;;10530621;28;20487;-82
2023/04/09 20:14:27;;;;;;;85.87;36.47;;;;;;;;;;10516568;28;20039;-82
2023/04/09 20:19:28;;;;;;;83.17;36.90;;;;;;;;;;10529206;28;20044;-82
2023/04/09 20:24:29;;;;;;;82.67;35.20;;;;;;;;;;10529110;28;20044;-84
2023/04/09 20:29:30;;;;;;;87.80;37.63;;;;;;;;;;10521541;28;20028;-83
2023/04/09 20:34:31;;;;;;;88.53;37.83;;;;;;;;;;10519961;28;20083;-83
2023/04/09 20:39:32;;;;;;;95.40;40.63;;;;;;;;;;10527796;28;20504;-82
2023/04/09 20:44:33;;;;;;;83.17;35.90;;;;;;;;;;10496059;28;20036;-83
2023/04/09 20:49:34;;;;;;;93.13;40.30;;;;;;;;;;10528002;28;20032;-83
2023/04/09 20:54:35;;;;;;;86.53;35.73;;;;;;;;;;10515967;28;20530;-82
2023/04/09 20:59:37;;;;;;;84.90;36.90;;;;;;;;;;10528220;28;20483;-83
2023/04/09 21:04:38;;;;;;;92.87;37.90;;;;;;;;;;10483994;28;20669;-82
2023/04/09 21:09:39;;;;;;;84.30;36.37;;;;;;;;;;10480146;28;20710;-83
2023/04/09 21:14:40;;;;;;;83.90;36.33;;;;;;;;;;10479569;28;20116;-83
2023/04/09 21:19:41;;;;;;;84.63;36.87;;;;;;;;;;10483532;28;20119;-83
2023/04/09 21:24:42;;;;;;;85.97;37.60;;;;;;;;;;10484479;28;20028;-84
2023/04/09 21:29:43;;;;;;;92.50;37.27;;;;;;;;;;10484609;28;20046;-83
2023/04/09 21:34:44;;;;;;;91.20;36.40;;;;;;;;;;10483471;28;20487;-83
2023/04/09 21:39:47;;;;;;;85.40;36.43;;;;;;;;;;10483451;28;20033;-84
2023/04/09 21:44:48;;;;;;;95.63;38.47;;;;;;;;;;10484647;28;20036;-82
2023/04/09 21:49:49;;;;;;;94.80;37.47;;;;;;;;;;10482695;28;20028;-84
2023/04/09 21:54:50;;;;;;;86.70;35.80;;;;;;;;;;10484341;28;20036;-83
2023/04/09 21:59:51;;;;;;;96.40;37.10;;;;;;;;;;10483500;28;20108;-84
2023/04/09 22:04:52;;;;;;;93.10;37.87;;;;;;;;;;10516619;28;20117;-83
2023/04/09 22:09:54;;;;;;;87.87;35.87;;;;;;;;;;10520935;28;20575;-83
2023/04/09 22:14:55;;;;;;;97.30;41.03;;;;;;;;;;10524355;28;20196;-83
2023/04/09 22:19:56;;;;;;;92.80;38.60;;;;;;;;;;10506609;28;20077;-84
2023/04/09 22:24:57;;;;;;;91.97;39.10;;;;;;;;;;10526122;28;20103;-83
2023/04/09 22:29:58;;;;;;;110.03;44.57;;;;;;;;;;10525889;28;20036;-83
2023/04/09 22:34:59;;;;;;;102.43;41.63;;;;;;;;;;10508181;28;20140;-82
2023/04/09 22:40:00;;;;;;;114.93;44.73;;;;;;;;;;10489591;28;20036;-83
2023/04/09 22:45:01;;;;;;;110.53;44.57;;;;;;;;;;10500523;28;20036;-83
2023/04/09 22:50:02;;;;;;;115.07;46.60;;;;;;;;;;10498068;28;20020;-81
2023/04/09 22:55:03;;;;;;;117.63;44.53;;;;;;;;;;10524717;28;20036;-82
2023/04/09 23:00:05;;;;;;;105.10;40.87;;;;;;;;;;10525492;28;20032;-82
2023/04/09 23:05:06;;;;;;;117.77;44.00;;;;;;;;;;10528369;28;20047;-81
2023/04/09 23:10:07;;;;;;;116.37;43.90;;;;;;;;;;10533464;28;20024;-82
2023/04/09 23:15:09;;;;;;;122.63;47.53;;;;;;;;;;10532895;28;20117;-81
2023/04/09 23:20:10;;;;;;;115.17;43.03;;;;;;;;;;10532097;28;20028;-83
2023/04/09 23:25:11;;;;;;;117.90;45.87;;;;;;;;;;10533018;28;20081;-82
2023/04/09 23:30:15;;;;;;;117.10;45.50;;;;;;;;;;10531211;28;20028;-81
2023/04/09 23:35:17;;;;;;;111.97;42.10;;;;;;;;;;10532433;28;20028;-80
2023/04/09 23:40:18;;;;;;;117.60;44.33;;;;;;;;;;10532097;28;20028;-81
2023/04/09 23:45:22;;;;;;;123.03;49.43;;;;;;;;;;10531782;28;20032;-82
2023/04/09 23:50:23;;;;;;;128.30;47.83;;;;;;;;;;10530144;28;20032;-82
2023/04/09 23:55:24;;;;;;;136.20;50.60;;;;;;;;;;10531433;28;20032;-81
